sensor_id;sensor_type;location;lat;lon;timestamp;pressure;altitude;pressure_sealevel;temperature;humidity
51249;BME280;39642;47.556;18.728;2023-04-26T00:00:25;98964.34;;;20.43;39.52
51249;BME280;39642;47.556;18.728;2023-04-26T00:02:50;98968.75;;;20.42;39.54
51249;BME280;39642;47.556;18.728;2023-04-26T00:05:17;98967.81;;;20.43;39.49
51249;BME280;39642;47.556;18.728;2023-04-26T00:07:44;98969.63;;;20.43;39.47
51249;BME280;39642;47.556;18.728;2023-04-26T00:10:10;98968.75;;;20.42;39.45
51249;BME280;39642;47.556;18.728;2023-04-26T00:12:36;98966.97;;;20.43;39.52
51249;BME280;39642;47.556;18.728;2023-04-26T00:15:03;98971.41;;;20.42;39.45
51249;BME280;39642;47.556;18.728;2023-04-26T00:17:29;98982.84;;;20.43;39.44
51249;BME280;39642;47.556;18.728;2023-04-26T00:19:56;98981.13;;;20.42;39.54
51249;BME280;39642;47.556;18.728;2023-04-26T00:22:23;98981.13;;;20.42;39.38
51249;BME280;39642;47.556;18.728;2023-04-26T00:24:50;98988.22;;;20.41;39.45
51249;BME280;39642;47.556;18.728;2023-04-26T00:27:16;98984.63;;;20.42;39.47
51249;BME280;39642;47.556;18.728;2023-04-26T00:29:42;98997.84;;;20.42;39.41
51249;BME280;39642;47.556;18.728;2023-04-26T00:32:08;99000.47;;;20.42;39.41
51249;BME280;39642;47.556;18.728;2023-04-26T00:34:35;99001.34;;;20.43;39.44
51249;BME280;39642;47.556;18.728;2023-04-26T00:37:02;98998.81;;;20.41;39.41
51249;BME280;39642;47.556;18.728;2023-04-26T00:39:29;99001.34;;;20.43;39.37
51249;BME280;39642;47.556;18.728;2023-04-26T00:41:55;99005.69;;;20.44;39.40
51249;BME280;39642;47.556;18.728;2023-04-26T00:44:21;99015.41;;;20.43;39.41
51249;BME280;39642;47.556;18.728;2023-04-26T00:46:48;99011.94;;;20.43;39.42
51249;BME280;39642;47.556;18.728;2023-04-26T00:49:18;99018.06;;;20.43;39.39
51249;BME280;39642;47.556;18.728;2023-04-26T00:51:47;99014.44;;;20.44;39.45
51249;BME280;39642;47.556;18.728;2023-04-26T00:54:13;99015.31;;;20.45;39.32
51249;BME280;39642;47.556;18.728;2023-04-26T00:56:40;99022.28;;;20.46;39.30
51249;BME280;39642;47.556;18.728;2023-04-26T00:59:07;99020.59;;;20.45;39.40
51249;BME280;39642;47.556;18.728;2023-04-26T01:01:33;99020.59;;;20.45;39.33
51249;BME280;39642;47.556;18.728;2023-04-26T01:04:00;99021.44;;;20.45;39.39
51249;BME280;39642;47.556;18.728;2023-04-26T01:06:33;99021.34;;;20.47;39.34
51249;BME280;39642;47.556;18.728;2023-04-26T01:09:04;99020.47;;;20.46;39.23
51249;BME280;39642;47.556;18.728;2023-04-26T01:11:35;99028.41;;;20.46;39.16
51249;BME280;39642;47.556;18.728;2023-04-26T01:14:03;99030.22;;;20.46;39.17
51249;BME280;39642;47.556;18.728;2023-04-26T01:16:29;99026.72;;;20.45;39.17
51249;BME280;39642;47.556;18.728;2023-04-26T01:18:55;99029.38;;;20.45;39.14
51249;BME280;39642;47.556;18.728;2023-04-26T01:21:23;99036.47;;;20.45;39.13
51249;BME280;39642;47.556;18.728;2023-04-26T01:23:50;99033.81;;;20.45;39.13
51249;BME280;39642;47.556;18.728;2023-04-26T01:26:17;99038.25;;;20.44;39.16
51249;BME280;39642;47.556;18.728;2023-04-26T01:28:43;99031.19;;;20.45;39.15
51249;BME280;39642;47.556;18.728;2023-04-26T01:31:11;99040.06;;;20.44;39.21
51249;BME280;39642;47.556;18.728;2023-04-26T01:33:37;99041.75;;;20.45;39.09
51249;BME280;39642;47.556;18.728;2023-04-26T01:36:07;99045.25;;;20.45;39.18
51249;BME280;39642;47.556;18.728;2023-04-26T01:38:34;99039.13;;;20.45;39.11
51249;BME280;39642;47.556;18.728;2023-04-26T01:41:00;99047.06;;;20.45;39.19
51249;BME280;39642;47.556;18.728;2023-04-26T01:43:26;99047.87;;;20.45;39.21
51249;BME280;39642;47.556;18.728;2023-04-26T01:45:52;99042.50;;;20.47;39.25
51249;BME280;39642;47.556;18.728;2023-04-26T01:48:18;99047.87;;;20.45;39.15
51249;BME280;39642;47.556;18.728;2023-04-26T01:50:44;99043.44;;;20.46;39.12
51249;BME280;39642;47.556;18.728;2023-04-26T01:53:10;99045.25;;;20.45;39.04
51249;BME280;39642;47.556;18.728;2023-04-26T01:55:36;99054.13;;;20.44;39.10
51249;BME280;39642;47.556;18.728;2023-04-26T01:58:02;99050.53;;;20.45;38.99
51249;BME280;39642;47.556;18.728;2023-04-26T02:00:28;99053.19;;;20.45;39.04
51249;BME280;39642;47.556;18.728;2023-04-26T02:02:55;99056.75;;;20.44;39.04
51249;BME280;39642;47.556;18.728;2023-04-26T02:05:21;99059.41;;;20.44;39.04
51249;BME280;39642;47.556;18.728;2023-04-26T02:07:47;99054.97;;;20.45;39.03
51249;BME280;39642;47.556;18.728;2023-04-26T02:10:13;99053.28;;;20.44;39.01
51249;BME280;39642;47.556;18.728;2023-04-26T02:12:39;99061.22;;;20.44;39.01
51249;BME280;39642;47.556;18.728;2023-04-26T02:15:05;99067.47;;;20.43;39.10
51249;BME280;39642;47.556;18.728;2023-04-26T02:17:32;99063.84;;;20.44;39.00
51249;BME280;39642;47.556;18.728;2023-04-26T02:19:58;99067.47;;;20.43;39.07
51249;BME280;39642;47.556;18.728;2023-04-26T02:22:24;99068.31;;;20.43;39.03
51249;BME280;39642;47.556;18.728;2023-04-26T02:24:51;99063.84;;;20.44;39.11
51249;BME280;39642;47.556;18.728;2023-04-26T02:27:18;99070.84;;;20.45;39.00
51249;BME280;39642;47.556;18.728;2023-04-26T02:29:44;99077.81;;;20.46;39.16
51249;BME280;39642;47.556;18.728;2023-04-26T02:32:13;99075.16;;;20.46;39.25
51249;BME280;39642;47.556;18.728;2023-04-26T02:34:40;99080.38;;;20.47;39.38
51249;BME280;39642;47.556;18.728;2023-04-26T02:37:06;99075.91;;;20.48;39.30
51249;BME280;39642;47.556;18.728;2023-04-26T02:39:32;99077.72;;;20.47;39.30
51249;BME280;39642;47.556;18.728;2023-04-26T02:41:58;99081.19;;;20.48;39.34
51249;BME280;39642;47.556;18.728;2023-04-26T02:44:24;99086.50;;;20.48;39.30
51249;BME280;39642;47.556;18.728;2023-04-26T02:46:50;99081.19;;;20.48;39.26
51249;BME280;39642;47.556;18.728;2023-04-26T02:49:16;99078.47;;;20.49;38.95
51249;BME280;39642;47.556;18.728;2023-04-26T02:51:42;99078.47;;;20.49;39.26
51249;BME280;39642;47.556;18.728;2023-04-26T02:54:07;99081.09;;;20.49;39.12
51249;BME280;39642;47.556;18.728;2023-04-26T02:56:33;99074.94;;;20.49;38.82
51249;BME280;39642;47.556;18.728;2023-04-26T02:58:59;99072.31;;;20.49;38.83
51249;BME280;39642;47.556;18.728;2023-04-26T03:01:26;99074.94;;;20.49;38.81
51249;BME280;39642;47.556;18.728;2023-04-26T03:03:52;99075.91;;;20.48;39.08
51249;BME280;39642;47.556;18.728;2023-04-26T03:06:18;99080.22;;;20.49;38.82
51249;BME280;39642;47.556;18.728;2023-04-26T03:08:44;99087.31;;;20.48;38.83
51249;BME280;39642;47.556;18.728;2023-04-26T03:11:10;99090.94;;;20.47;38.93
51249;BME280;39642;47.556;18.728;2023-04-26T03:13:36;99091.78;;;20.48;38.86
51249;BME280;39642;47.556;18.728;2023-04-26T03:16:02;99096.22;;;20.47;38.90
51249;BME280;39642;47.556;18.728;2023-04-26T03:18:28;99105.00;;;20.48;38.80
51249;BME280;39642;47.556;18.728;2023-04-26T03:20:54;99100.69;;;20.47;38.74
51249;BME280;39642;47.556;18.728;2023-04-26T03:23:20;99107.75;;;20.46;38.80
51249;BME280;39642;47.556;18.728;2023-04-26T03:25:48;99110.38;;;20.46;38.82
51249;BME280;39642;47.556;18.728;2023-04-26T03:28:14;99103.31;;;20.47;38.78
51249;BME280;39642;47.556;18.728;2023-04-26T03:30:40;99092.75;;;20.47;38.69
51249;BME280;39642;47.556;18.728;2023-04-26T03:33:06;99112.19;;;20.46;38.76
51249;BME280;39642;47.556;18.728;2023-04-26T03:35:32;99120.12;;;20.46;38.70
51249;BME280;39642;47.556;18.728;2023-04-26T03:37:58;99117.47;;;20.46;38.73
51249;BME280;39642;47.556;18.728;2023-04-26T03:40:24;99121.84;;;20.47;38.72
51249;BME280;39642;47.556;18.728;2023-04-26T03:42:50;99128.06;;;20.46;38.67
51249;BME280;39642;47.556;18.728;2023-04-26T03:45:16;99133.34;;;20.46;38.63
51249;BME280;39642;47.556;18.728;2023-04-26T03:47:42;99138.63;;;20.46;38.69
51249;BME280;39642;47.556;18.728;2023-04-26T03:50:08;99129.03;;;20.45;38.76
51249;BME280;39642;47.556;18.728;2023-04-26T03:52:34;99124.66;;;20.44;38.62
51249;BME280;39642;47.556;18.728;2023-04-26T03:55:00;99129.97;;;20.44;38.79
51249;BME280;39642;47.556;18.728;2023-04-26T03:57:26;99130.78;;;20.44;38.69
51249;BME280;39642;47.556;18.728;2023-04-26T03:59:52;99135.25;;;20.44;38.95
51249;BME280;39642;47.556;18.728;2023-04-26T04:02:18;99133.44;;;20.44;38.81
51249;BME280;39642;47.556;18.728;2023-04-26T04:04:44;99144.03;;;20.44;38.74
51249;BME280;39642;47.556;18.728;2023-04-26T04:07:09;99140.53;;;20.44;38.59
51249;BME280;39642;47.556;18.728;2023-04-26T04:09:35;99142.34;;;20.43;38.56
51249;BME280;39642;47.556;18.728;2023-04-26T04:12:01;99149.44;;;20.43;38.59
51249;BME280;39642;47.556;18.728;2023-04-26T04:14:27;99158.22;;;20.43;38.52
51249;BME280;39642;47.556;18.728;2023-04-26T04:16:53;99154.72;;;20.43;38.62
51249;BME280;39642;47.556;18.728;2023-04-26T04:19:19;99164.34;;;20.44;38.78
51249;BME280;39642;47.556;18.728;2023-04-26T04:21:45;99166.97;;;20.44;38.69
51249;BME280;39642;47.556;18.728;2023-04-26T04:24:11;99160.75;;;20.45;38.51
51249;BME280;39642;47.556;18.728;2023-04-26T04:26:37;99163.41;;;20.45;38.52
51249;BME280;39642;47.556;18.728;2023-04-26T04:29:03;99169.53;;;20.45;38.47
51249;BME280;39642;47.556;18.728;2023-04-26T04:31:34;99173.09;;;20.44;38.51
51249;BME280;39642;47.556;18.728;2023-04-26T04:34:00;99176.50;;;20.46;38.79
51249;BME280;39642;47.556;18.728;2023-04-26T04:36:26;99181.78;;;20.46;38.84
51249;BME280;39642;47.556;18.728;2023-04-26T04:38:52;99181.78;;;20.46;38.63
51249;BME280;39642;47.556;18.728;2023-04-26T04:41:18;99178.22;;;20.47;38.43
51249;BME280;39642;47.556;18.728;2023-04-26T04:43:46;99187.81;;;20.48;38.83
51249;BME280;39642;47.556;18.728;2023-04-26T04:46:12;99189.62;;;20.48;38.60
51249;BME280;39642;47.556;18.728;2023-04-26T04:48:38;99188.66;;;20.49;38.84
51249;BME280;39642;47.556;18.728;2023-04-26T04:51:04;99196.50;;;20.50;38.90
51249;BME280;39642;47.556;18.728;2023-04-26T04:53:31;99195.56;;;20.51;38.43
51249;BME280;39642;47.556;18.728;2023-04-26T04:55:56;99202.63;;;20.51;38.37
51249;BME280;39642;47.556;18.728;2023-04-26T04:58:22;99208.78;;;20.51;38.83
51249;BME280;39642;47.556;18.728;2023-04-26T05:00:48;99207.81;;;20.52;38.79
51249;BME280;39642;47.556;18.728;2023-04-26T05:03:15;99213.88;;;20.54;38.88
51249;BME280;39642;47.556;18.728;2023-04-26T05:05:41;99216.41;;;20.56;38.71
51249;BME280;39642;47.556;18.728;2023-04-26T05:08:07;99216.31;;;20.57;38.40
51249;BME280;39642;47.556;18.728;2023-04-26T05:10:33;99209.25;;;20.58;38.48
51249;BME280;39642;47.556;18.728;2023-04-26T05:13:00;99213.47;;;20.61;38.50
51249;BME280;39642;47.556;18.728;2023-04-26T05:15:26;99217.72;;;20.63;38.65
51249;BME280;39642;47.556;18.728;2023-04-26T05:17:51;99218.47;;;20.65;38.47
51249;BME280;39642;47.556;18.728;2023-04-26T05:20:19;99222.78;;;20.66;38.42
51249;BME280;39642;47.556;18.728;2023-04-26T05:22:45;99215.59;;;20.68;39.98
51249;BME280;39642;47.556;18.728;2023-04-26T05:25:11;99221.63;;;20.70;40.00
51249;BME280;39642;47.556;18.728;2023-04-26T05:27:38;99227.56;;;20.74;40.24
51249;BME280;39642;47.556;18.728;2023-04-26T05:30:05;99220.25;;;20.77;39.78
51249;BME280;39642;47.556;18.728;2023-04-26T05:32:31;99221.84;;;20.80;40.27
51249;BME280;39642;47.556;18.728;2023-04-26T05:34:57;99215.63;;;20.81;39.83
51249;BME280;39642;47.556;18.728;2023-04-26T05:37:23;99218.88;;;20.85;39.70
51249;BME280;39642;47.556;18.728;2023-04-26T05:39:49;99217.09;;;20.85;38.84
51249;BME280;39642;47.556;18.728;2023-04-26T05:42:15;99224.91;;;20.87;39.59
51249;BME280;39642;47.556;18.728;2023-04-26T05:44:41;99223.22;;;20.86;39.72
51249;BME280;39642;47.556;18.728;2023-04-26T05:47:07;99230.19;;;20.87;39.63
51249;BME280;39642;47.556;18.728;2023-04-26T05:49:33;99223.97;;;20.88;38.42
51249;BME280;39642;47.556;18.728;2023-04-26T05:51:59;99230.19;;;20.87;39.57
51249;BME280;39642;47.556;18.728;2023-04-26T05:54:25;99232.09;;;20.85;38.33
51249;BME280;39642;47.556;18.728;2023-04-26T05:56:51;99222.81;;;20.79;39.18
51249;BME280;39642;47.556;18.728;2023-04-26T05:59:17;99245.87;;;20.77;38.75
51249;BME280;39642;47.556;18.728;2023-04-26T06:01:43;99239.09;;;20.73;38.68
51249;BME280;39642;47.556;18.728;2023-04-26T06:04:09;99239.19;;;20.71;38.70
51249;BME280;39642;47.556;18.728;2023-04-26T06:06:34;99231.25;;;20.71;38.38
51249;BME280;39642;47.556;18.728;2023-04-26T06:09:01;99239.19;;;20.71;39.23
51249;BME280;39642;47.556;18.728;2023-04-26T06:11:27;99244.16;;;20.76;40.03
51249;BME280;39642;47.556;18.728;2023-04-26T06:13:53;99243.12;;;20.78;39.92
51249;BME280;39642;47.556;18.728;2023-04-26T06:16:21;99238.59;;;20.81;40.16
51249;BME280;39642;47.556;18.728;2023-04-26T06:18:47;99239.31;;;20.83;40.07
51249;BME280;39642;47.556;18.728;2023-04-26T06:21:13;99246.31;;;20.84;39.74
51249;BME280;39642;47.556;18.728;2023-04-26T06:23:39;99242.69;;;20.85;39.50
51249;BME280;39642;47.556;18.728;2023-04-26T06:26:05;99246.09;;;20.87;39.56
51249;BME280;39642;47.556;18.728;2023-04-26T06:28:31;99262.81;;;20.87;39.19
51249;BME280;39642;47.556;18.728;2023-04-26T06:30:57;99255.00;;;20.86;39.08
51249;BME280;39642;47.556;18.728;2023-04-26T06:33:23;99252.44;;;20.84;38.68
51249;BME280;39642;47.556;18.728;2023-04-26T06:35:49;99265.75;;;20.83;38.80
51249;BME280;39642;47.556;18.728;2023-04-26T06:38:15;99265.75;;;20.83;38.80
51249;BME280;39642;47.556;18.728;2023-04-26T06:40:41;99261.53;;;20.80;38.57
51249;BME280;39642;47.556;18.728;2023-04-26T06:43:07;99272.13;;;20.80;38.54
51249;BME280;39642;47.556;18.728;2023-04-26T06:45:33;99273.81;;;20.81;38.93
51249;BME280;39642;47.556;18.728;2023-04-26T06:47:59;99279.00;;;20.83;39.03
51249;BME280;39642;47.556;18.728;2023-04-26T06:50:29;99277.84;;;20.87;38.90
51249;BME280;39642;47.556;18.728;2023-04-26T06:52:55;99278.81;;;20.86;38.68
51249;BME280;39642;47.556;18.728;2023-04-26T06:55:21;99285.59;;;20.90;38.82
51249;BME280;39642;47.556;18.728;2023-04-26T06:57:48;99281.12;;;20.90;38.16
51249;BME280;39642;47.556;18.728;2023-04-26T07:00:15;99294.97;;;20.94;38.38
51249;BME280;39642;47.556;18.728;2023-04-26T07:02:42;99294.88;;;20.95;38.51
51249;BME280;39642;47.556;18.728;2023-04-26T07:05:08;99293.09;;;20.96;38.20
51249;BME280;39642;47.556;18.728;2023-04-26T07:07:34;99294.06;;;20.95;37.98
51249;BME280;39642;47.556;18.728;2023-04-26T07:10:00;99298.38;;;20.96;38.13
51249;BME280;39642;47.556;18.728;2023-04-26T07:12:26;99291.41;;;20.95;38.04
51249;BME280;39642;47.556;18.728;2023-04-26T07:14:52;99294.78;;;20.97;38.11
51249;BME280;39642;47.556;18.728;2023-04-26T07:17:18;99291.31;;;20.96;37.77
51249;BME280;39642;47.556;18.728;2023-04-26T07:19:44;99298.38;;;20.96;38.11
51249;BME280;39642;47.556;18.728;2023-04-26T07:22:10;99297.63;;;20.94;38.00
51249;BME280;39642;47.556;18.728;2023-04-26T07:24:36;99301.16;;;20.94;37.20
51249;BME280;39642;47.556;18.728;2023-04-26T07:27:02;99296.03;;;20.91;36.89
51249;BME280;39642;47.556;18.728;2023-04-26T07:29:28;99298.81;;;20.90;37.38
51249;BME280;39642;47.556;18.728;2023-04-26T07:31:54;99298.81;;;20.90;36.21
51249;BME280;39642;47.556;18.728;2023-04-26T07:34:21;99294.56;;;20.87;36.86
51249;BME280;39642;47.556;18.728;2023-04-26T07:36:47;99306.94;;;20.87;36.53
51249;BME280;39642;47.556;18.728;2023-04-26T07:39:13;99305.13;;;20.87;36.15
51249;BME280;39642;47.556;18.728;2023-04-26T07:41:40;99307.06;;;20.85;35.99
51249;BME280;39642;47.556;18.728;2023-04-26T07:44:06;99301.13;;;20.82;35.89
51249;BME280;39642;47.556;18.728;2023-04-26T07:46:32;99313.38;;;20.83;36.27
51249;BME280;39642;47.556;18.728;2023-04-26T07:48:59;99308.84;;;20.85;36.36
51249;BME280;39642;47.556;18.728;2023-04-26T07:51:25;99310.44;;;20.87;36.21
51249;BME280;39642;47.556;18.728;2023-04-26T07:53:51;99308.66;;;20.88;35.98
51249;BME280;39642;47.556;18.728;2023-04-26T07:56:17;99309.19;;;20.93;34.88
51249;BME280;39642;47.556;18.728;2023-04-26T07:58:43;99315.13;;;20.96;35.86
51249;BME280;39642;47.556;18.728;2023-04-26T08:01:09;99322.94;;;20.98;35.56
51249;BME280;39642;47.556;18.728;2023-04-26T08:03:36;99324.66;;;20.99;36.19
51249;BME280;39642;47.556;18.728;2023-04-26T08:06:02;99318.53;;;20.98;36.76
51249;BME280;39642;47.556;18.728;2023-04-26T08:08:28;99326.47;;;20.98;36.51
51249;BME280;39642;47.556;18.728;2023-04-26T08:10:54;99332.59;;;20.99;36.46
51249;BME280;39642;47.556;18.728;2023-04-26T08:13:20;99323.91;;;20.97;36.42
51249;BME280;39642;47.556;18.728;2023-04-26T08:15:47;99332.78;;;20.96;36.02
51249;BME280;39642;47.556;18.728;2023-04-26T08:18:13;99333.66;;;20.96;35.70
51249;BME280;39642;47.556;18.728;2023-04-26T08:20:40;99341.59;;;20.96;35.96
51249;BME280;39642;47.556;18.728;2023-04-26T08:23:06;99345.94;;;20.97;35.83
51249;BME280;39642;47.556;18.728;2023-04-26T08:25:32;99341.16;;;21.03;35.89
51249;BME280;39642;47.556;18.728;2023-04-26T08:28:01;99343.31;;;21.10;36.01
51249;BME280;39642;47.556;18.728;2023-04-26T08:30:27;99344.56;;;21.17;36.19
51249;BME280;39642;47.556;18.728;2023-04-26T08:32:53;99340.78;;;21.21;35.07
51249;BME280;39642;47.556;18.728;2023-04-26T08:35:19;99332.81;;;21.21;35.13
51249;BME280;39642;47.556;18.728;2023-04-26T08:37:46;99341.72;;;21.20;35.34
51249;BME280;39642;47.556;18.728;2023-04-26T08:40:12;99354.94;;;21.20;35.03
51249;BME280;39642;47.556;18.728;2023-04-26T08:42:39;99350.53;;;21.21;34.64
51249;BME280;39642;47.556;18.728;2023-04-26T08:45:07;99347.34;;;21.29;33.62
51249;BME280;39642;47.556;18.728;2023-04-26T08:50:05;99362.38;;;21.28;33.50
51249;BME280;39642;47.556;18.728;2023-04-26T08:52:34;99357.94;;;21.29;34.26
51249;BME280;39642;47.556;18.728;2023-04-26T08:55:01;99360.16;;;21.35;34.04
51249;BME280;39642;47.556;18.728;2023-04-26T08:57:30;99363.34;;;21.40;33.70
51249;BME280;39642;47.556;18.728;2023-04-26T08:59:58;99362.06;;;21.46;33.28
51249;BME280;39642;47.556;18.728;2023-04-26T09:02:24;99346.84;;;21.49;33.63
51249;BME280;39642;47.556;18.728;2023-04-26T09:04:50;99370.44;;;21.52;34.37
51249;BME280;39642;47.556;18.728;2023-04-26T09:07:20;99369.69;;;21.50;33.50
51249;BME280;39642;47.556;18.728;2023-04-26T09:09:50;99366.53;;;21.45;34.09
51249;BME280;39642;47.556;18.728;2023-04-26T09:12:19;99370.16;;;21.44;34.31
51249;BME280;39642;47.556;18.728;2023-04-26T09:14:46;99371.97;;;21.44;34.23
51249;BME280;39642;47.556;18.728;2023-04-26T09:17:35;99362.41;;;21.41;33.84
51249;BME280;39642;47.556;18.728;2023-04-26T09:20:21;99375.00;;;21.37;33.65
51249;BME280;39642;47.556;18.728;2023-04-26T09:22:49;99373.28;;;21.36;33.89
51249;BME280;39642;47.556;18.728;2023-04-26T09:25:18;99366.41;;;21.34;33.91
51249;BME280;39642;47.556;18.728;2023-04-26T09:27:44;99354.13;;;21.33;34.19
51249;BME280;39642;47.556;18.728;2023-04-26T09:30:13;99354.22;;;21.31;33.57
51249;BME280;39642;47.556;18.728;2023-04-26T09:32:59;99357.94;;;21.29;33.26
51249;BME280;39642;47.556;18.728;2023-04-26T09:38:01;99340.78;;;21.21;33.50
51249;BME280;39642;47.556;18.728;2023-04-26T09:40:36;99362.06;;;21.20;32.86
51249;BME280;39642;47.556;18.728;2023-04-26T09:43:07;99360.25;;;21.20;34.17
51249;BME280;39642;47.556;18.728;2023-04-26T09:45:47;99356.84;;;21.18;32.72
51249;BME280;39642;47.556;18.728;2023-04-26T09:48:22;99354.19;;;21.18;34.20
51249;BME280;39642;47.556;18.728;2023-04-26T09:51:13;99351.56;;;21.18;32.53
51249;BME280;39642;47.556;18.728;2023-04-26T09:53:41;99361.22;;;21.19;31.75
51249;BME280;39642;47.556;18.728;2023-04-26T09:56:17;99364.91;;;21.17;31.83
51249;BME280;39642;47.556;18.728;2023-04-26T10:01:09;99357.06;;;21.15;32.28
51249;BME280;39642;47.556;18.728;2023-04-26T10:03:36;99365.22;;;21.12;32.83
51249;BME280;39642;47.556;18.728;2023-04-26T10:06:03;99369.78;;;21.10;33.78
51249;BME280;39642;47.556;18.728;2023-04-26T10:08:30;99360.13;;;21.09;32.19
51249;BME280;39642;47.556;18.728;2023-04-26T10:10:59;99347.84;;;21.08;32.91
51249;BME280;39642;47.556;18.728;2023-04-26T10:13:26;99350.41;;;21.10;33.73
51249;BME280;39642;47.556;18.728;2023-04-26T10:15:53;99351.25;;;21.10;33.65
51249;BME280;39642;47.556;18.728;2023-04-26T10:18:21;99351.13;;;21.12;32.95
51249;BME280;39642;47.556;18.728;2023-04-26T10:20:49;99353.06;;;21.10;32.33
51249;BME280;39642;47.556;18.728;2023-04-26T10:23:21;99348.59;;;21.10;33.10
51249;BME280;39642;47.556;18.728;2023-04-26T10:25:50;99360.03;;;21.11;33.32
51249;BME280;39642;47.556;18.728;2023-04-26T10:28:17;99353.78;;;21.12;32.38
51249;BME280;39642;47.556;18.728;2023-04-26T10:31:03;99351.88;;;21.14;31.35
51249;BME280;39642;47.556;18.728;2023-04-26T10:33:30;99359.06;;;21.12;31.57
51249;BME280;39642;47.556;18.728;2023-04-26T10:36:09;99359.06;;;21.12;30.79
51249;BME280;39642;47.556;18.728;2023-04-26T10:38:36;99356.72;;;21.07;30.90
51249;BME280;39642;47.556;18.728;2023-04-26T10:51:10;99360.34;;;21.06;31.34
51249;BME280;39642;47.556;18.728;2023-04-26T11:02:46;99350.50;;;21.08;32.73
51249;BME280;39642;47.556;18.728;2023-04-26T11:05:52;99361.28;;;21.05;32.41
51249;BME280;39642;47.556;18.728;2023-04-26T11:08:24;99374.63;;;21.04;32.31
51249;BME280;39642;47.556;18.728;2023-04-26T11:10:56;99362.25;;;21.04;32.40
51249;BME280;39642;47.556;18.728;2023-04-26T11:13:22;99362.34;;;21.03;32.81
51249;BME280;39642;47.556;18.728;2023-04-26T11:15:52;99354.53;;;21.01;32.72
51249;BME280;39642;47.556;18.728;2023-04-26T11:18:19;99352.63;;;21.03;32.94
51249;BME280;39642;47.556;18.728;2023-04-26T11:20:48;99359.59;;;21.04;32.45
51249;BME280;39642;47.556;18.728;2023-04-26T11:23:14;99358.75;;;21.04;32.41
51249;BME280;39642;47.556;18.728;2023-04-26T11:25:43;99359.69;;;21.03;33.04
51249;BME280;39642;47.556;18.728;2023-04-26T11:28:09;99354.41;;;21.03;32.09
51249;BME280;39642;47.556;18.728;2023-04-26T11:30:35;99361.81;;;20.97;31.83
51249;BME280;39642;47.556;18.728;2023-04-26T11:33:02;99366.25;;;20.97;31.39
51249;BME280;39642;47.556;18.728;2023-04-26T11:35:33;99361.72;;;20.99;31.74
51249;BME280;39642;47.556;18.728;2023-04-26T11:37:59;99362.56;;;20.99;31.28
51249;BME280;39642;47.556;18.728;2023-04-26T11:40:29;99361.28;;;21.05;33.17
51249;BME280;39642;47.556;18.728;2023-04-26T11:43:00;99354.72;;;21.11;35.18
51249;BME280;39642;47.556;18.728;2023-04-26T11:45:27;99368.94;;;21.23;33.56
51249;BME280;39642;47.556;18.728;2023-04-26T11:47:54;99374.97;;;21.25;32.40
51249;BME280;39642;47.556;18.728;2023-04-26T11:50:58;99374.34;;;21.21;31.65
51249;BME280;39642;47.556;18.728;2023-04-26T11:53:17;99371.28;;;21.14;31.94
51249;BME280;39642;47.556;18.728;2023-04-26T11:55:43;99372.19;;;21.13;32.47
51249;BME280;39642;47.556;18.728;2023-04-26T11:58:11;99364.25;;;21.13;32.88
51249;BME280;39642;47.556;18.728;2023-04-26T12:00:57;99369.56;;;21.13;31.56
51249;BME280;39642;47.556;18.728;2023-04-26T12:03:31;99363.50;;;21.11;32.02
51249;BME280;39642;47.556;18.728;2023-04-26T12:05:58;99368.81;;;21.11;31.77
51249;BME280;39642;47.556;18.728;2023-04-26T12:08:25;99369.13;;;21.07;31.50
51249;BME280;39642;47.556;18.728;2023-04-26T12:10:51;99368.19;;;21.08;31.77
51249;BME280;39642;47.556;18.728;2023-04-26T12:13:19;99369.22;;;21.05;32.05
51249;BME280;39642;47.556;18.728;2023-04-26T12:15:45;99373.03;;;21.01;32.59
51249;BME280;39642;47.556;18.728;2023-04-26T12:18:16;99377.91;;;20.94;32.83
51249;BME280;39642;47.556;18.728;2023-04-26T12:20:42;99375.56;;;20.90;32.74
51249;BME280;39642;47.556;18.728;2023-04-26T12:23:13;99381.16;;;20.85;33.42
51249;BME280;39642;47.556;18.728;2023-04-26T12:25:41;99381.47;;;20.81;33.17
51249;BME280;39642;47.556;18.728;2023-04-26T12:28:16;99366.44;;;20.81;33.44
51249;BME280;39642;47.556;18.728;2023-04-26T12:30:41;99361.97;;;20.82;33.40
51249;BME280;39642;47.556;18.728;2023-04-26T12:33:07;99383.69;;;20.87;33.76
51249;BME280;39642;47.556;18.728;2023-04-26T12:35:33;99380.28;;;20.85;33.16
51249;BME280;39642;47.556;18.728;2023-04-26T12:38:00;99387.28;;;20.86;33.35
51249;BME280;39642;47.556;18.728;2023-04-26T12:40:27;99389.81;;;20.87;33.21
51249;BME280;39642;47.556;18.728;2023-04-26T12:42:54;99389.81;;;20.87;33.77
51249;BME280;39642;47.556;18.728;2023-04-26T12:45:21;99393.34;;;20.88;33.48
51249;BME280;39642;47.556;18.728;2023-04-26T12:47:48;99402.03;;;20.90;33.50
51249;BME280;39642;47.556;18.728;2023-04-26T12:50:14;99401.06;;;20.91;33.47
51249;BME280;39642;47.556;18.728;2023-04-26T12:52:42;99401.91;;;20.91;33.18
51249;BME280;39642;47.556;18.728;2023-04-26T12:55:13;99402.78;;;20.92;33.72
51249;BME280;39642;47.556;18.728;2023-04-26T12:57:40;99394.41;;;20.98;33.41
51249;BME280;39642;47.556;18.728;2023-04-26T13:00:09;99392.63;;;20.98;32.87
51249;BME280;39642;47.556;18.728;2023-04-26T13:02:36;99386.38;;;20.99;32.72
51249;BME280;39642;47.556;18.728;2023-04-26T13:05:02;99391.56;;;21.01;33.66
51249;BME280;39642;47.556;18.728;2023-04-26T13:07:33;99387.75;;;21.05;33.66
51249;BME280;39642;47.556;18.728;2023-04-26T13:10:00;99388.19;;;21.12;35.22
51249;BME280;39642;47.556;18.728;2023-04-26T13:12:27;99382.56;;;21.16;33.70
51249;BME280;39642;47.556;18.728;2023-04-26T13:14:53;99403.12;;;21.13;33.55
51249;BME280;39642;47.556;18.728;2023-04-26T13:17:19;99408.53;;;21.11;34.16